sensor_id;sensor_type;location;lat;lon;timestamp;P1;durP1;ratioP1;P2;durP2;ratioP2
73452;SDS011;61687;56.232;43.854;2023-07-20T00:01:13;9.50;;;4.67;;
73452;SDS011;61687;56.232;43.854;2023-07-20T00:03:39;8.32;;;4.28;;
73452;SDS011;61687;56.232;43.854;2023-07-20T00:06:05;7.17;;;4.73;;
73452;SDS011;61687;56.232;43.854;2023-07-20T00:08:31;7.35;;;4.53;;
73452;SDS011;61687;56.232;43.854;2023-07-20T00:10:57;10.02;;;4.75;;
73452;SDS011;61687;56.232;43.854;2023-07-20T00:13:23;6.28;;;4.53;;
73452;SDS011;61687;56.232;43.854;2023-07-20T00:15:50;7.53;;;4.45;;
73452;SDS011;61687;56.232;43.854;2023-07-20T00:18:17;7.83;;;4.80;;
73452;SDS011;61687;56.232;43.854;2023-07-20T00:20:46;8.80;;;4.30;;
73452;SDS011;61687;56.232;43.854;2023-07-20T00:23:13;9.30;;;4.35;;
73452;SDS011;61687;56.232;43.854;2023-07-20T00:25:39;6.63;;;5.10;;
73452;SDS011;61687;56.232;43.854;2023-07-20T00:28:05;8.20;;;4.23;;
73452;SDS011;61687;56.232;43.854;2023-07-20T00:30:31;8.48;;;4.28;;
73452;SDS011;61687;56.232;43.854;2023-07-20T00:32:57;6.88;;;3.72;;
73452;SDS011;61687;56.232;43.854;2023-07-20T00:35:23;5.83;;;3.60;;
73452;SDS011;61687;56.232;43.854;2023-07-20T00:37:49;8.68;;;3.85;;
73452;SDS011;61687;56.232;43.854;2023-07-20T00:40:15;12.02;;;4.05;;
73452;SDS011;61687;56.232;43.854;2023-07-20T00:42:43;10.00;;;4.20;;
73452;SDS011;61687;56.232;43.854;2023-07-20T00:45:09;7.70;;;3.63;;
73452;SDS011;61687;56.232;43.854;2023-07-20T00:47:35;8.77;;;4.32;;
73452;SDS011;61687;56.232;43.854;2023-07-20T00:50:02;7.45;;;3.78;;
73452;SDS011;61687;56.232;43.854;2023-07-20T00:52:32;6.63;;;4.23;;
73452;SDS011;61687;56.232;43.854;2023-07-20T00:54:58;9.55;;;4.28;;
73452;SDS011;61687;56.232;43.854;2023-07-20T00:57:25;9.25;;;4.45;;
73452;SDS011;61687;56.232;43.854;2023-07-20T00:59:51;11.02;;;3.88;;
73452;SDS011;61687;56.232;43.854;2023-07-20T01:02:17;6.47;;;4.07;;
73452;SDS011;61687;56.232;43.854;2023-07-20T01:04:43;8.27;;;3.70;;
73452;SDS011;61687;56.232;43.854;2023-07-20T01:07:14;7.82;;;4.60;;
73452;SDS011;61687;56.232;43.854;2023-07-20T01:10:09;7.95;;;3.88;;
73452;SDS011;61687;56.232;43.854;2023-07-20T01:12:41;10.13;;;4.03;;
73452;SDS011;61687;56.232;43.854;2023-07-20T01:15:08;9.97;;;4.07;;
73452;SDS011;61687;56.232;43.854;2023-07-20T01:17:35;7.85;;;3.67;;
73452;SDS011;61687;56.232;43.854;2023-07-20T01:20:01;9.35;;;4.10;;
73452;SDS011;61687;56.232;43.854;2023-07-20T01:33:49;7.60;;;4.05;;
73452;SDS011;61687;56.232;43.854;2023-07-20T01:36:17;9.20;;;4.03;;
73452;SDS011;61687;56.232;43.854;2023-07-20T01:38:45;6.50;;;3.92;;
73452;SDS011;61687;56.232;43.854;2023-07-20T01:41:12;7.93;;;4.00;;
73452;SDS011;61687;56.232;43.854;2023-07-20T01:43:38;10.68;;;4.28;;
73452;SDS011;61687;56.232;43.854;2023-07-20T01:46:04;7.85;;;4.15;;
73452;SDS011;61687;56.232;43.854;2023-07-20T01:48:30;10.50;;;3.50;;
73452;SDS011;61687;56.232;43.854;2023-07-20T01:50:57;8.40;;;4.10;;
73452;SDS011;61687;56.232;43.854;2023-07-20T01:53:23;6.40;;;4.30;;
73452;SDS011;61687;56.232;43.854;2023-07-20T01:55:49;6.68;;;3.90;;
73452;SDS011;61687;56.232;43.854;2023-07-20T01:58:15;8.50;;;3.72;;
73452;SDS011;61687;56.232;43.854;2023-07-20T02:00:41;8.53;;;4.20;;
73452;SDS011;61687;56.232;43.854;2023-07-20T02:03:06;6.77;;;3.97;;
73452;SDS011;61687;56.232;43.854;2023-07-20T02:05:32;9.52;;;3.72;;
73452;SDS011;61687;56.232;43.854;2023-07-20T02:07:58;5.53;;;4.00;;
73452;SDS011;61687;56.232;43.854;2023-07-20T02:10:24;8.50;;;3.50;;
73452;SDS011;61687;56.232;43.854;2023-07-20T02:12:50;7.63;;;3.92;;
73452;SDS011;61687;56.232;43.854;2023-07-20T02:15:16;9.55;;;3.60;;
73452;SDS011;61687;56.232;43.854;2023-07-20T02:17:44;6.90;;;3.40;;
73452;SDS011;61687;56.232;43.854;2023-07-20T02:20:11;9.43;;;4.00;;
73452;SDS011;61687;56.232;43.854;2023-07-20T02:22:38;8.45;;;3.95;;
73452;SDS011;61687;56.232;43.854;2023-07-20T02:25:05;7.05;;;4.03;;
73452;SDS011;61687;56.232;43.854;2023-07-20T02:27:36;7.82;;;3.80;;
73452;SDS011;61687;56.232;43.854;2023-07-20T02:30:03;9.00;;;3.57;;
73452;SDS011;61687;56.232;43.854;2023-07-20T02:32:36;5.57;;;3.42;;
73452;SDS011;61687;56.232;43.854;2023-07-20T02:35:03;6.75;;;3.42;;
73452;SDS011;61687;56.232;43.854;2023-07-20T02:37:32;7.72;;;3.58;;
73452;SDS011;61687;56.232;43.854;2023-07-20T02:39:58;6.60;;;3.53;;
73452;SDS011;61687;56.232;43.854;2023-07-20T02:42:24;7.57;;;3.70;;
73452;SDS011;61687;56.232;43.854;2023-07-20T02:44:52;9.15;;;3.65;;
73452;SDS011;61687;56.232;43.854;2023-07-20T02:47:18;7.63;;;3.67;;
73452;SDS011;61687;56.232;43.854;2023-07-20T02:49:44;7.68;;;3.55;;
73452;SDS011;61687;56.232;43.854;2023-07-20T02:52:10;11.60;;;4.17;;
73452;SDS011;61687;56.232;43.854;2023-07-20T02:54:36;9.80;;;3.63;;
73452;SDS011;61687;56.232;43.854;2023-07-20T02:57:02;6.68;;;3.50;;
73452;SDS011;61687;56.232;43.854;2023-07-20T02:59:28;8.85;;;4.05;;
73452;SDS011;61687;56.232;43.854;2023-07-20T03:01:55;6.57;;;3.67;;
73452;SDS011;61687;56.232;43.854;2023-07-20T03:04:25;7.23;;;4.20;;
73452;SDS011;61687;56.232;43.854;2023-07-20T03:06:51;11.13;;;5.03;;
73452;SDS011;61687;56.232;43.854;2023-07-20T03:09:17;8.05;;;3.83;;
73452;SDS011;61687;56.232;43.854;2023-07-20T03:11:43;7.40;;;3.77;;
73452;SDS011;61687;56.232;43.854;2023-07-20T03:14:11;6.78;;;4.10;;
73452;SDS011;61687;56.232;43.854;2023-07-20T03:16:38;7.55;;;3.65;;
73452;SDS011;61687;56.232;43.854;2023-07-20T03:19:04;7.00;;;3.72;;
73452;SDS011;61687;56.232;43.854;2023-07-20T03:21:30;9.80;;;4.00;;
73452;SDS011;61687;56.232;43.854;2023-07-20T03:23:58;7.03;;;3.58;;
73452;SDS011;61687;56.232;43.854;2023-07-20T03:26:25;8.23;;;3.70;;
73452;SDS011;61687;56.232;43.854;2023-07-20T03:28:51;8.60;;;4.15;;
73452;SDS011;61687;56.232;43.854;2023-07-20T03:31:20;6.82;;;4.22;;
73452;SDS011;61687;56.232;43.854;2023-07-20T03:33:45;7.17;;;4.00;;
73452;SDS011;61687;56.232;43.854;2023-07-20T03:36:11;7.65;;;4.00;;
73452;SDS011;61687;56.232;43.854;2023-07-20T03:38:37;8.43;;;3.80;;
73452;SDS011;61687;56.232;43.854;2023-07-20T03:41:03;7.13;;;4.03;;
73452;SDS011;61687;56.232;43.854;2023-07-20T03:43:29;8.23;;;3.80;;
73452;SDS011;61687;56.232;43.854;2023-07-20T03:45:55;8.73;;;4.30;;
73452;SDS011;61687;56.232;43.854;2023-07-20T03:48:24;7.73;;;3.63;;
73452;SDS011;61687;56.232;43.854;2023-07-20T03:50:51;6.85;;;3.50;;
73452;SDS011;61687;56.232;43.854;2023-07-20T03:53:19;6.55;;;3.92;;
73452;SDS011;61687;56.232;43.854;2023-07-20T03:55:49;7.93;;;4.05;;
73452;SDS011;61687;56.232;43.854;2023-07-20T03:58:16;9.52;;;3.67;;
73452;SDS011;61687;56.232;43.854;2023-07-20T04:00:47;6.47;;;4.13;;
73452;SDS011;61687;56.232;43.854;2023-07-20T04:03:14;7.03;;;3.88;;
73452;SDS011;61687;56.232;43.854;2023-07-20T04:05:40;7.32;;;3.53;;
73452;SDS011;61687;56.232;43.854;2023-07-20T04:08:06;5.50;;;3.47;;
73452;SDS011;61687;56.232;43.854;2023-07-20T04:10:32;9.68;;;3.67;;
73452;SDS011;61687;56.232;43.854;2023-07-20T04:12:58;8.43;;;3.93;;
73452;SDS011;61687;56.232;43.854;2023-07-20T04:15:25;9.95;;;4.18;;
73452;SDS011;61687;56.232;43.854;2023-07-20T04:17:51;7.22;;;3.67;;
73452;SDS011;61687;56.232;43.854;2023-07-20T04:20:17;6.63;;;3.27;;
73452;SDS011;61687;56.232;43.854;2023-07-20T04:22:43;9.95;;;4.13;;
73452;SDS011;61687;56.232;43.854;2023-07-20T04:25:12;7.13;;;3.50;;
73452;SDS011;61687;56.232;43.854;2023-07-20T04:27:38;8.57;;;3.60;;
73452;SDS011;61687;56.232;43.854;2023-07-20T04:30:06;8.23;;;3.38;;
73452;SDS011;61687;56.232;43.854;2023-07-20T04:32:33;9.38;;;3.90;;
73452;SDS011;61687;56.232;43.854;2023-07-20T04:35:01;7.50;;;4.18;;
73452;SDS011;61687;56.232;43.854;2023-07-20T04:37:31;7.88;;;3.53;;
73452;SDS011;61687;56.232;43.854;2023-07-20T04:39:58;8.10;;;3.77;;
73452;SDS011;61687;56.232;43.854;2023-07-20T04:42:24;8.70;;;3.28;;
73452;SDS011;61687;56.232;43.854;2023-07-20T04:44:50;7.50;;;3.28;;
73452;SDS011;61687;56.232;43.854;2023-07-20T04:47:16;7.90;;;3.83;;
73452;SDS011;61687;56.232;43.854;2023-07-20T04:49:42;9.43;;;3.80;;
73452;SDS011;61687;56.232;43.854;2023-07-20T04:52:07;7.53;;;3.92;;
73452;SDS011;61687;56.232;43.854;2023-07-20T04:54:33;7.03;;;3.03;;
73452;SDS011;61687;56.232;43.854;2023-07-20T04:56:59;7.25;;;3.80;;
73452;SDS011;61687;56.232;43.854;2023-07-20T04:59:26;5.57;;;4.03;;
73452;SDS011;61687;56.232;43.854;2023-07-20T05:01:52;9.32;;;4.03;;
73452;SDS011;61687;56.232;43.854;2023-07-20T05:04:18;11.93;;;4.40;;
73452;SDS011;61687;56.232;43.854;2023-07-20T05:06:44;8.07;;;3.80;;
73452;SDS011;61687;56.232;43.854;2023-07-20T05:09:11;8.02;;;3.70;;
73452;SDS011;61687;56.232;43.854;2023-07-20T05:11:37;9.13;;;3.75;;
73452;SDS011;61687;56.232;43.854;2023-07-20T05:14:06;7.57;;;3.60;;
73452;SDS011;61687;56.232;43.854;2023-07-20T05:16:32;6.57;;;4.10;;
73452;SDS011;61687;56.232;43.854;2023-07-20T05:19:02;6.45;;;3.65;;
73452;SDS011;61687;56.232;43.854;2023-07-20T05:21:28;9.70;;;4.20;;
73452;SDS011;61687;56.232;43.854;2023-07-20T05:23:54;7.23;;;3.53;;
73452;SDS011;61687;56.232;43.854;2023-07-20T05:26:20;7.15;;;3.50;;
73452;SDS011;61687;56.232;43.854;2023-07-20T05:28:46;8.80;;;3.45;;
73452;SDS011;61687;56.232;43.854;2023-07-20T05:31:12;11.77;;;3.40;;
73452;SDS011;61687;56.232;43.854;2023-07-20T05:33:38;4.75;;;3.05;;
73452;SDS011;61687;56.232;43.854;2023-07-20T05:36:04;7.43;;;3.17;;
73452;SDS011;61687;56.232;43.854;2023-07-20T05:38:30;4.38;;;3.42;;
73452;SDS011;61687;56.232;43.854;2023-07-20T05:40:59;8.50;;;3.70;;
73452;SDS011;61687;56.232;43.854;2023-07-20T05:43:29;7.82;;;3.50;;
73452;SDS011;61687;56.232;43.854;2023-07-20T05:45:55;8.88;;;3.90;;
73452;SDS011;61687;56.232;43.854;2023-07-20T05:48:21;6.40;;;3.67;;
73452;SDS011;61687;56.232;43.854;2023-07-20T05:50:47;5.10;;;3.30;;
73452;SDS011;61687;56.232;43.854;2023-07-20T05:53:13;8.32;;;3.75;;
73452;SDS011;61687;56.232;43.854;2023-07-20T05:55:39;6.47;;;4.35;;
73452;SDS011;61687;56.232;43.854;2023-07-20T05:58:06;5.63;;;3.88;;
73452;SDS011;61687;56.232;43.854;2023-07-20T06:00:32;5.95;;;3.30;;
73452;SDS011;61687;56.232;43.854;2023-07-20T06:02:58;4.97;;;3.00;;
73452;SDS011;61687;56.232;43.854;2023-07-20T06:05:23;7.47;;;3.38;;
73452;SDS011;61687;56.232;43.854;2023-07-20T06:07:50;6.28;;;3.42;;
73452;SDS011;61687;56.232;43.854;2023-07-20T06:10:17;4.72;;;3.40;;
73452;SDS011;61687;56.232;43.854;2023-07-20T06:12:44;4.40;;;2.80;;
73452;SDS011;61687;56.232;43.854;2023-07-20T06:15:24;7.85;;;3.75;;
73452;SDS011;61687;56.232;43.854;2023-07-20T06:17:51;6.10;;;3.95;;
73452;SDS011;61687;56.232;43.854;2023-07-20T06:20:17;5.28;;;3.75;;
73452;SDS011;61687;56.232;43.854;2023-07-20T06:22:44;8.53;;;4.03;;
73452;SDS011;61687;56.232;43.854;2023-07-20T06:25:10;10.32;;;3.35;;
73452;SDS011;61687;56.232;43.854;2023-07-20T06:27:37;5.85;;;3.58;;
73452;SDS011;61687;56.232;43.854;2023-07-20T06:30:02;6.25;;;3.92;;
73452;SDS011;61687;56.232;43.854;2023-07-20T06:32:30;7.67;;;3.60;;
73452;SDS011;61687;56.232;43.854;2023-07-20T06:34:56;6.93;;;3.60;;
73452;SDS011;61687;56.232;43.854;2023-07-20T06:37:22;7.32;;;3.35;;
73452;SDS011;61687;56.232;43.854;2023-07-20T06:39:48;5.88;;;3.70;;
73452;SDS011;61687;56.232;43.854;2023-07-20T06:42:14;6.17;;;3.30;;
73452;SDS011;61687;56.232;43.854;2023-07-20T06:44:39;6.38;;;3.13;;
73452;SDS011;61687;56.232;43.854;2023-07-20T06:47:05;5.85;;;2.63;;
73452;SDS011;61687;56.232;43.854;2023-07-20T06:49:32;4.30;;;3.00;;
73452;SDS011;61687;56.232;43.854;2023-07-20T06:51:58;5.90;;;3.08;;
73452;SDS011;61687;56.232;43.854;2023-07-20T06:54:26;5.35;;;3.03;;
73452;SDS011;61687;56.232;43.854;2023-07-20T06:56:52;5.75;;;3.10;;
73452;SDS011;61687;56.232;43.854;2023-07-20T06:59:18;5.40;;;2.90;;
73452;SDS011;61687;56.232;43.854;2023-07-20T07:01:44;7.50;;;3.45;;
73452;SDS011;61687;56.232;43.854;2023-07-20T07:04:10;7.05;;;3.17;;
73452;SDS011;61687;56.232;43.854;2023-07-20T07:06:36;5.32;;;3.90;;
73452;SDS011;61687;56.232;43.854;2023-07-20T07:09:03;8.17;;;3.70;;
73452;SDS011;61687;56.232;43.854;2023-07-20T07:11:29;5.05;;;3.35;;
73452;SDS011;61687;56.232;43.854;2023-07-20T07:13:56;6.40;;;2.95;;
73452;SDS011;61687;56.232;43.854;2023-07-20T07:16:22;5.75;;;2.88;;
73452;SDS011;61687;56.232;43.854;2023-07-20T07:18:49;5.10;;;2.78;;
73452;SDS011;61687;56.232;43.854;2023-07-20T07:21:16;10.83;;;3.10;;
73452;SDS011;61687;56.232;43.854;2023-07-20T07:23:43;9.02;;;3.45;;
73452;SDS011;61687;56.232;43.854;2023-07-20T07:26:11;7.70;;;3.05;;
73452;SDS011;61687;56.232;43.854;2023-07-20T07:28:37;10.07;;;3.38;;
73452;SDS011;61687;56.232;43.854;2023-07-20T07:31:06;7.33;;;3.10;;
73452;SDS011;61687;56.232;43.854;2023-07-20T07:33:33;6.13;;;2.90;;
73452;SDS011;61687;56.232;43.854;2023-07-20T07:36:00;9.35;;;3.15;;
73452;SDS011;61687;56.232;43.854;2023-07-20T07:38:31;10.45;;;3.00;;
73452;SDS011;61687;56.232;43.854;2023-07-20T07:40:57;5.13;;;2.72;;
73452;SDS011;61687;56.232;43.854;2023-07-20T07:43:23;8.50;;;2.60;;
73452;SDS011;61687;56.232;43.854;2023-07-20T07:45:49;9.57;;;3.38;;
73452;SDS011;61687;56.232;43.854;2023-07-20T07:48:16;8.68;;;2.83;;
73452;SDS011;61687;56.232;43.854;2023-07-20T07:50:42;5.47;;;2.63;;
73452;SDS011;61687;56.232;43.854;2023-07-20T07:53:08;7.93;;;2.90;;
73452;SDS011;61687;56.232;43.854;2023-07-20T07:55:35;5.50;;;3.10;;
73452;SDS011;61687;56.232;43.854;2023-07-20T07:58:01;5.32;;;3.38;;
73452;SDS011;61687;56.232;43.854;2023-07-20T08:00:28;5.43;;;2.47;;
73452;SDS011;61687;56.232;43.854;2023-07-20T08:02:54;9.63;;;3.10;;
73452;SDS011;61687;56.232;43.854;2023-07-20T08:05:20;5.88;;;2.95;;
73452;SDS011;61687;56.232;43.854;2023-07-20T08:07:46;5.60;;;2.47;;
73452;SDS011;61687;56.232;43.854;2023-07-20T08:10:12;9.68;;;3.42;;
73452;SDS011;61687;56.232;43.854;2023-07-20T08:12:38;6.75;;;3.13;;
73452;SDS011;61687;56.232;43.854;2023-07-20T08:15:04;5.50;;;2.70;;
73452;SDS011;61687;56.232;43.854;2023-07-20T08:17:33;5.15;;;2.45;;
73452;SDS011;61687;56.232;43.854;2023-07-20T08:20:01;4.90;;;2.50;;
73452;SDS011;61687;56.232;43.854;2023-07-20T08:22:30;4.75;;;2.72;;
73452;SDS011;61687;56.232;43.854;2023-07-20T08:24:56;5.05;;;2.72;;
73452;SDS011;61687;56.232;43.854;2023-07-20T08:27:22;6.97;;;2.55;;
73452;SDS011;61687;56.232;43.854;2023-07-20T08:29:48;4.27;;;2.07;;
73452;SDS011;61687;56.232;43.854;2023-07-20T08:32:15;5.50;;;2.65;;
73452;SDS011;61687;56.232;43.854;2023-07-20T08:34:41;5.18;;;2.60;;
73452;SDS011;61687;56.232;43.854;2023-07-20T08:37:08;5.15;;;2.25;;
73452;SDS011;61687;56.232;43.854;2023-07-20T08:39:35;6.07;;;2.60;;
73452;SDS011;61687;56.232;43.854;2023-07-20T08:42:01;6.80;;;3.08;;
73452;SDS011;61687;56.232;43.854;2023-07-20T08:44:35;6.78;;;2.78;;
73452;SDS011;61687;56.232;43.854;2023-07-20T08:47:04;5.50;;;2.15;;
73452;SDS011;61687;56.232;43.854;2023-07-20T08:49:31;4.85;;;2.80;;
73452;SDS011;61687;56.232;43.854;2023-07-20T08:52:00;7.10;;;3.03;;
73452;SDS011;61687;56.232;43.854;2023-07-20T08:54:29;7.50;;;2.53;;
73452;SDS011;61687;56.232;43.854;2023-07-20T08:56:58;5.57;;;2.83;;
73452;SDS011;61687;56.232;43.854;2023-07-20T08:59:27;4.60;;;2.65;;
73452;SDS011;61687;56.232;43.854;2023-07-20T09:01:55;6.20;;;2.85;;
73452;SDS011;61687;56.232;43.854;2023-07-20T09:04:24;6.03;;;2.57;;
73452;SDS011;61687;56.232;43.854;2023-07-20T09:06:50;5.03;;;2.60;;
73452;SDS011;61687;56.232;43.854;2023-07-20T09:09:17;6.20;;;2.53;;
73452;SDS011;61687;56.232;43.854;2023-07-20T09:11:46;6.78;;;2.72;;
73452;SDS011;61687;56.232;43.854;2023-07-20T09:14:13;6.20;;;2.23;;
73452;SDS011;61687;56.232;43.854;2023-07-20T09:16:48;5.13;;;2.55;;
73452;SDS011;61687;56.232;43.854;2023-07-20T09:19:15;6.18;;;2.55;;
73452;SDS011;61687;56.232;43.854;2023-07-20T09:21:46;4.10;;;2.70;;
73452;SDS011;61687;56.232;43.854;2023-07-20T09:24:12;6.70;;;2.80;;
73452;SDS011;61687;56.232;43.854;2023-07-20T09:26:42;7.40;;;2.97;;
73452;SDS011;61687;56.232;43.854;2023-07-20T09:29:19;4.85;;;3.03;;
73452;SDS011;61687;56.232;43.854;2023-07-20T09:31:58;7.65;;;2.83;;
73452;SDS011;61687;56.232;43.854;2023-07-20T09:34:31;5.57;;;2.78;;
73452;SDS011;61687;56.232;43.854;2023-07-20T09:36:58;6.45;;;2.92;;
73452;SDS011;61687;56.232;43.854;2023-07-20T09:39:24;8.77;;;2.90;;
73452;SDS011;61687;56.232;43.854;2023-07-20T09:41:51;5.72;;;2.90;;
73452;SDS011;61687;56.232;43.854;2023-07-20T09:44:17;6.80;;;2.78;;
73452;SDS011;61687;56.232;43.854;2023-07-20T09:46:44;6.55;;;2.80;;
73452;SDS011;61687;56.232;43.854;2023-07-20T09:49:11;9.40;;;3.42;;
73452;SDS011;61687;56.232;43.854;2023-07-20T09:51:37;5.00;;;2.40;;
73452;SDS011;61687;56.232;43.854;2023-07-20T09:54:04;3.95;;;2.38;;
73452;SDS011;61687;56.232;43.854;2023-07-20T09:56:31;4.93;;;2.42;;
73452;SDS011;61687;56.232;43.854;2023-07-20T09:58:58;6.35;;;3.10;;
73452;SDS011;61687;56.232;43.854;2023-07-20T10:01:25;9.18;;;3.28;;
73452;SDS011;61687;56.232;43.854;2023-07-20T10:03:53;5.97;;;2.70;;
73452;SDS011;61687;56.232;43.854;2023-07-20T10:06:23;9.55;;;2.92;;
73452;SDS011;61687;56.232;43.854;2023-07-20T10:08:53;8.07;;;2.80;;
73452;SDS011;61687;56.232;43.854;2023-07-20T10:11:26;6.05;;;3.38;;
73452;SDS011;61687;56.232;43.854;2023-07-20T10:13:55;4.88;;;2.70;;
73452;SDS011;61687;56.232;43.854;2023-07-20T10:21:32;7.50;;;3.00;;
73452;SDS011;61687;56.232;43.854;2023-07-20T10:24:01;7.13;;;2.70;;
73452;SDS011;61687;56.232;43.854;2023-07-20T10:26:28;7.65;;;3.13;;
73452;SDS011;61687;56.232;43.854;2023-07-20T10:28:54;5.87;;;2.93;;
73452;SDS011;61687;56.232;43.854;2023-07-20T10:31:22;4.90;;;2.45;;
73452;SDS011;61687;56.232;43.854;2023-07-20T10:33:49;8.88;;;2.95;;
73452;SDS011;61687;56.232;43.854;2023-07-20T10:36:16;4.57;;;2.33;;
73452;SDS011;61687;56.232;43.854;2023-07-20T10:38:55;5.35;;;2.17;;
73452;SDS011;61687;56.232;43.854;2023-07-20T10:41:27;5.97;;;2.40;;
73452;SDS011;61687;56.232;43.854;2023-07-20T10:44:04;5.50;;;2.50;;
73452;SDS011;61687;56.232;43.854;2023-07-20T10:49:06;5.90;;;3.53;;
73452;SDS011;61687;56.232;43.854;2023-07-20T10:51:39;8.95;;;3.30;;
73452;SDS011;61687;56.232;43.854;2023-07-20T10:54:11;4.10;;;2.30;;
73452;SDS011;61687;56.232;43.854;2023-07-20T10:57:21;7.53;;;2.90;;
73452;SDS011;61687;56.232;43.854;2023-07-20T10:59:53;7.20;;;3.00;;
73452;SDS011;61687;56.232;43.854;2023-07-20T11:02:44;5.53;;;3.08;;
73452;SDS011;61687;56.232;43.854;2023-07-20T11:08:03;7.47;;;3.10;;
73452;SDS011;61687;56.232;43.854;2023-07-20T11:10:31;7.43;;;3.30;;
73452;SDS011;61687;56.232;43.854;2023-07-20T11:16:00;7.10;;;3.75;;
73452;SDS011;61687;56.232;43.854;2023-07-20T11:18:30;9.85;;;4.15;;
73452;SDS011;61687;56.232;43.854;2023-07-20T11:20:59;9.40;;;4.20;;
73452;SDS011;61687;56.232;43.854;2023-07-20T11:23:25;8.38;;;3.00;;
73452;SDS011;61687;56.232;43.854;2023-07-20T11:25:51;4.68;;;2.45;;
73452;SDS011;61687;56.232;43.854;2023-07-20T11:28:19;8.63;;;3.17;;
73452;SDS011;61687;56.232;43.854;2023-07-20T11:30:49;7.23;;;2.50;;
73452;SDS011;61687;56.232;43.854;2023-07-20T11:33:17;10.60;;;2.50;;
73452;SDS011;61687;56.232;43.854;2023-07-20T11:35:44;8.65;;;2.72;;
73452;SDS011;61687;56.232;43.854;2023-07-20T11:38:12;8.27;;;2.95;;
73452;SDS011;61687;56.232;43.854;2023-07-20T11:40:42;11.10;;;2.88;;
73452;SDS011;61687;56.232;43.854;2023-07-20T11:43:14;5.83;;;3.63;;
73452;SDS011;61687;56.232;43.854;2023-07-20T11:45:41;6.78;;;3.10;;
73452;SDS011;61687;56.232;43.854;2023-07-20T11:48:07;10.73;;;3.42;;
73452;SDS011;61687;56.232;43.854;2023-07-20T11:50:39;6.85;;;3.60;;
73452;SDS011;61687;56.232;43.854;2023-07-20T11:53:05;10.65;;;3.83;;
73452;SDS011;61687;56.232;43.854;2023-07-20T11:55:32;7.30;;;4.10;;
73452;SDS011;61687;56.232;43.854;2023-07-20T12:00:28;7.38;;;3.78;;
73452;SDS011;61687;56.232;43.854;2023-07-20T12:02:54;7.75;;;3.42;;
73452;SDS011;61687;56.232;43.854;2023-07-20T12:05:22;7.88;;;3.90;;
73452;SDS011;61687;56.232;43.854;2023-07-20T12:07:49;6.47;;;4.10;;
73452;SDS011;61687;56.232;43.854;2023-07-20T12:10:23;7.50;;;3.78;;
73452;SDS011;61687;56.232;43.854;2023-07-20T12:12:51;5.88;;;4.10;;
73452;SDS011;61687;56.232;43.854;2023-07-20T12:17:56;7.78;;;3.90;;
73452;SDS011;61687;56.232;43.854;2023-07-20T12:20:27;6.47;;;4.00;;
73452;SDS011;61687;56.232;43.854;2023-07-20T12:23:01;4.93;;;2.90;;
73452;SDS011;61687;56.232;43.854;2023-07-20T12:25:36;6.63;;;3.50;;
73452;SDS011;61687;56.232;43.854;2023-07-20T12:28:12;5.38;;;2.88;;
73452;SDS011;61687;56.232;43.854;2023-07-20T12:30:43;4.35;;;2.50;;
73452;SDS011;61687;56.232;43.854;2023-07-20T12:33:10;5.70;;;2.97;;
73452;SDS011;61687;56.232;43.854;2023-07-20T12:35:37;4.93;;;2.55;;
73452;SDS011;61687;56.232;43.854;2023-07-20T12:38:03;6.70;;;3.83;;
73452;SDS011;61687;56.232;43.854;2023-07-20T12:40:30;6.40;;;3.38;;
73452;SDS011;61687;56.232;43.854;2023-07-20T12:42:56;7.78;;;4.38;;
73452;SDS011;61687;56.232;43.854;2023-07-20T12:45:23;4.43;;;2.50;;
73452;SDS011;61687;56.232;43.854;2023-07-20T12:47:49;4.28;;;2.60;;
73452;SDS011;61687;56.232;43.854;2023-07-20T12:50:15;5.22;;;2.97;;
73452;SDS011;61687;56.232;43.854;2023-07-20T12:52:41;6.20;;;2.38;;
73452;SDS011;61687;56.232;43.854;2023-07-20T12:55:08;5.55;;;2.45;;
73452;SDS011;61687;56.232;43.854;2023-07-20T12:57:35;5.60;;;2.40;;
73452;SDS011;61687;56.232;43.854;2023-07-20T13:00:03;6.75;;;2.40;;
73452;SDS011;61687;56.232;43.854;2023-07-20T13:02:33;5.78;;;2.85;;
73452;SDS011;61687;56.232;43.854;2023-07-20T13:05:00;6.18;;;3.40;;
73452;SDS011;61687;56.232;43.854;2023-07-20T13:07:39;11.00;;;3.95;;
73452;SDS011;61687;56.232;43.854;2023-07-20T13:10:05;9.97;;;4.30;;
73452;SDS011;61687;56.232;43.854;2023-07-20T13:12:33;8.43;;;3.97;;
73452;SDS011;61687;56.232;43.854;2023-07-20T13:15:01;8.32;;;4.60;;
73452;SDS011;61687;56.232;43.854;2023-07-20T13:17:33;9.10;;;3.75;;
73452;SDS011;61687;56.232;43.854;2023-07-20T13:19:59;8.30;;;3.70;;
73452;SDS011;61687;56.232;43.854;2023-07-20T13:22:25;7.13;;;4.00;;
73452;SDS011;61687;56.232;43.854;2023-07-20T13:24:52;8.48;;;4.60;;
73452;SDS011;61687;56.232;43.854;2023-07-20T13:27:19;6.43;;;3.60;;
73452;SDS011;61687;56.232;43.854;2023-07-20T13:29:45;5.20;;;3.10;;
73452;SDS011;61687;56.232;43.854;2023-07-20T13:32:15;5.93;;;3.10;;
73452;SDS011;61687;56.232;43.854;2023-07-20T13:34:41;7.68;;;3.17;;
73452;SDS011;61687;56.232;43.854;2023-07-20T13:37:07;5.85;;;3.88;;
73452;SDS011;61687;56.232;43.854;2023-07-20T13:39:34;6.65;;;3.47;;
73452;SDS011;61687;56.232;43.854;2023-07-20T13:42:00;4.90;;;3.47;;
73452;SDS011;61687;56.232;43.854;2023-07-20T13:44:31;5.47;;;2.70;;
73452;SDS011;61687;56.232;43.854;2023-07-20T13:46:57;6.97;;;3.38;;
73452;SDS011;61687;56.232;43.854;2023-07-20T13:49:24;5.53;;;2.83;;
73452;SDS011;61687;56.232;43.854;2023-07-20T13:51:50;6.82;;;3.15;;
73452;SDS011;61687;56.232;43.854;2023-07-20T13:54:16;6.97;;;3.22;;
73452;SDS011;61687;56.232;43.854;2023-07-20T13:56:42;4.83;;;2.77;;
73452;SDS011;61687;56.232;43.854;2023-07-20T13:59:08;7.55;;;2.67;;
73452;SDS011;61687;56.232;43.854;2023-07-20T14:01:34;6.22;;;3.55;;
73452;SDS011;61687;56.232;43.854;2023-07-20T14:04:01;8.07;;;3.63;;
73452;SDS011;61687;56.232;43.854;2023-07-20T14:06:29;11.87;;;2.60;;
73452;SDS011;61687;56.232;43.854;2023-07-20T14:08:56;8.68;;;2.15;;
73452;SDS011;61687;56.232;43.854;2023-07-20T14:11:23;7.55;;;2.70;;
73452;SDS011;61687;56.232;43.854;2023-07-20T14:13:50;7.22;;;2.65;;
73452;SDS011;61687;56.232;43.854;2023-07-20T14:16:18;5.25;;;2.03;;
73452;SDS011;61687;56.232;43.854;2023-07-20T14:18:44;9.43;;;2.40;;
73452;SDS011;61687;56.232;43.854;2023-07-20T14:21:12;4.60;;;2.10;;
73452;SDS011;61687;56.232;43.854;2023-07-20T14:23:38;4.40;;;2.10;;
73452;SDS011;61687;56.232;43.854;2023-07-20T14:26:04;7.20;;;2.17;;
73452;SDS011;61687;56.232;43.854;2023-07-20T14:28:31;3.57;;;2.10;;
73452;SDS011;61687;56.232;43.854;2023-07-20T14:30:57;3.97;;;2.50;;
73452;SDS011;61687;56.232;43.854;2023-07-20T14:33:23;6.60;;;2.58;;
73452;SDS011;61687;56.232;43.854;2023-07-20T14:35:50;4.38;;;2.22;;
73452;SDS011;61687;56.232;43.854;2023-07-20T14:38:15;5.30;;;2.03;;
73452;SDS011;61687;56.232;43.854;2023-07-20T14:40:41;5.77;;;2.50;;
73452;SDS011;61687;56.232;43.854;2023-07-20T14:43:07;3.80;;;2.38;;
73452;SDS011;61687;56.232;43.854;2023-07-20T14:45:33;5.43;;;2.47;;
73452;SDS011;61687;56.232;43.854;2023-07-20T14:47:59;8.43;;;2.83;;
73452;SDS011;61687;56.232;43.854;2023-07-20T14:50:25;6.00;;;2.77;;
73452;SDS011;61687;56.232;43.854;2023-07-20T14:52:51;4.38;;;2.50;;
73452;SDS011;61687;56.232;43.854;2023-07-20T14:55:17;4.68;;;2.30;;
73452;SDS011;61687;56.232;43.854;2023-07-20T14:57:44;5.67;;;1.90;;
73452;SDS011;61687;56.232;43.854;2023-07-20T15:00:10;4.95;;;2.13;;
73452;SDS011;61687;56.232;43.854;2023-07-20T15:02:37;7.55;;;2.13;;
73452;SDS011;61687;56.232;43.854;2023-07-20T15:05:05;5.20;;;2.47;;